Time;durP1;ratioP1;P1;durP2;ratioP2;P2;SDS_P1;SDS_P2;PMS_P1;PMS_P2;Temp;Humidity;BMP_temperature;BMP_pressure;BME280_temperature;BME280_humidity;BME280_pressure;Samples;Min_cycle;Max_cycle;Signal;HPM_P1;HPM_P2
2022/12/21 05:34:42;;;;;;;7.00;2.20;;;6.70;99.90;;;;;;6210758;22;1490981;-95
2022/12/21 05:37:20;;;;;;;5.97;2.13;;;6.70;99.90;;;;;;6251475;22;20015;-96
2022/12/21 05:39:56;;;;;;;5.65;1.85;;;6.70;99.90;;;;;;6231248;22;20046;-96
2022/12/21 05:42:23;;;;;;;6.57;2.20;;;6.70;99.90;;;;;;6256053;22;20015;-95
2022/12/21 11:10:51;;;;;;;19.75;6.90;;;7.40;99.90;;;;;;6263708;22;20028;-90
2022/12/21 11:13:19;;;;;;;16.08;6.38;;;7.50;99.90;;;;;;6224786;22;20102;-89
2022/12/21 11:15:52;;;;;;;15.80;6.90;;;7.50;99.90;;;;;;6225412;22;20057;-91
2022/12/21 11:18:36;;;;;;;16.70;6.25;;;7.50;99.90;;;;;;6225473;22;20073;-91
2022/12/21 11:21:04;;;;;;;18.60;6.28;;;7.50;99.90;;;;;;6226744;22;20015;-91
2022/12/21 11:23:31;;;;;;;13.45;5.63;;;7.50;99.90;;;;;;6228141;22;20020;-91
2022/12/21 11:26:03;;;;;;;23.45;8.40;;;7.60;99.90;;;;;;6229280;22;20026;-92
2022/12/21 11:41:28;;;;;;;63.40;38.95;;;7.70;99.90;;;;;;6276551;22;20030;-92
2022/12/21 11:43:55;;;;;;;34.90;21.17;;;7.70;99.90;;;;;;6224079;23;20024;-91
2022/12/21 12:51:01;;;;;;;11.77;4.00;;;8.40;99.90;;;;;;6277500;22;20020;-88
2022/12/21 12:53:51;;;;;;;10.68;4.22;;;8.40;99.90;;;;;;6251046;22;20020;-90
2022/12/21 12:56:54;;;;;;;15.35;4.82;;;8.40;99.90;;;;;;6251006;22;20016;-86
2022/12/21 12:59:43;;;;;;;13.35;4.40;;;8.50;99.90;;;;;;6250650;22;20094;-90
2022/12/21 13:02:21;;;;;;;13.15;4.53;;;8.50;99.90;;;;;;6250997;22;20016;-88
2022/12/21 13:05:05;;;;;;;17.45;4.78;;;8.50;99.90;;;;;;6250713;22;20012;-88
2022/12/21 13:07:42;;;;;;;16.20;4.85;;;8.50;99.90;;;;;;6250219;22;20460;-95
2022/12/21 13:10:18;;;;;;;13.87;4.57;;;8.50;99.90;;;;;;6250660;22;20047;-92
2022/12/21 13:12:47;;;;;;;16.17;4.82;;;8.50;99.90;;;;;;6276177;22;20257;-89
2022/12/21 13:15:58;;;;;;;13.02;4.40;;;8.60;99.90;;;;;;6251334;22;20047;-88
2022/12/21 13:18:38;;;;;;;14.15;4.45;;;8.50;99.90;;;;;;6182871;22;20050;-88
2022/12/21 13:21:07;;;;;;;14.18;5.22;;;8.50;99.90;;;;;;6250795;22;20022;-92
2022/12/21 13:23:59;;;;;;;14.52;5.38;;;8.50;99.90;;;;;;6251268;22;20345;-91
2022/12/21 13:26:40;;;;;;;14.27;5.00;;;8.60;99.90;;;;;;6250489;22;20015;-90
2022/12/21 13:29:19;;;;;;;18.05;5.85;;;8.50;99.90;;;;;;6252840;22;20018;-90
2022/12/21 13:32:05;;;;;;;16.38;5.47;;;8.50;99.90;;;;;;6252897;22;20459;-90
2022/12/21 13:35:22;;;;;;;;;;;;;;;;;;;;;
2022/12/21 14:52:16;;;;;;;15.00;6.88;;;8.30;99.90;;;;;;6281084;22;20024;-92
2022/12/21 15:16:32;;;;;;;19.15;7.93;;;8.20;99.90;;;;;;6254036;22;20024;-94
2022/12/21 15:19:10;;;;;;;22.85;14.65;;;8.20;99.90;;;;;;6225698;22;20020;-93
2022/12/21 18:30:03;;;;;;;21.25;9.05;;;7.80;99.90;;;;;;6284326;22;20023;-90
2022/12/21 18:32:29;;;;;;;21.35;9.90;;;7.80;99.90;;;;;;6257410;22;20521;-89
2022/12/21 18:35:23;;;;;;;21.73;10.47;;;7.80;99.90;;;;;;6232996;22;20011;-90
2022/12/21 18:38:04;;;;;;;22.13;10.18;;;7.80;99.90;;;;;;6256549;22;20378;-91
2022/12/21 18:40:29;;;;;;;21.90;8.70;;;7.80;99.90;;;;;;6257258;22;20471;-89
2022/12/21 18:43:01;;;;;;;19.77;9.00;;;7.80;99.90;;;;;;6231893;22;20022;-90
2022/12/21 18:46:00;;;;;;;18.23;8.68;;;7.80;99.90;;;;;;6255201;22;20107;-92
2022/12/21 18:48:28;;;;;;;20.50;9.10;;;7.80;99.90;;;;;;6257857;22;20042;-91
2022/12/21 18:50:54;;;;;;;21.50;9.43;;;7.80;99.90;;;;;;6257528;22;20105;-91
2022/12/21 18:53:21;;;;;;;21.83;8.73;;;7.80;99.90;;;;;;6257613;22;20023;-91
2022/12/21 18:55:47;;;;;;;19.85;9.68;;;7.80;99.90;;;;;;6232144;22;20043;-92
2022/12/21 18:58:13;;;;;;;18.50;8.77;;;7.70;99.90;;;;;;6257463;22;20027;-91
2022/12/21 19:00:43;;;;;;;20.80;8.90;;;7.70;99.90;;;;;;6257433;22;20007;-93
2022/12/21 19:03:29;;;;;;;20.85;8.35;;;7.70;99.90;;;;;;6257112;22;20460;-92
2022/12/21 19:05:55;;;;;;;20.60;9.52;;;7.70;99.90;;;;;;6231358;22;20016;-94
2022/12/21 19:23:43;;;;;;;21.23;9.18;;;7.70;99.90;;;;;;6336526;22;20027;-91
2022/12/21 19:26:09;;;;;;;20.63;8.63;;;7.70;99.90;;;;;;6262228;22;20026;-91
2022/12/21 19:28:35;;;;;;;18.03;8.13;;;7.70;99.90;;;;;;6287388;22;20436;-91
2022/12/21 19:31:27;;;;;;;19.80;8.50;;;7.70;99.90;;;;;;6287766;22;20019;-92
2022/12/21 19:33:56;;;;;;;18.88;7.72;;;7.70;99.90;;;;;;6313095;22;20030;-89
2022/12/21 19:36:32;;;;;;;21.75;9.15;;;7.70;99.90;;;;;;6287444;22;20066;-92
2022/12/21 19:38:58;;;;;;;18.48;7.68;;;7.70;99.90;;;;;;6287375;22;20444;-92
2022/12/21 19:41:24;;;;;;;20.30;9.00;;;7.70;99.90;;;;;;6287367;22;20057;-93
2022/12/21 19:43:52;;;;;;;19.13;8.50;;;7.70;99.90;;;;;;6287340;22;20018;-91
2022/12/21 19:46:47;;;;;;;18.17;8.27;;;7.70;99.90;;;;;;6313100;22;20455;-92
2022/12/21 19:49:22;;;;;;;17.45;7.80;;;7.70;99.90;;;;;;6299828;22;20093;-90
2022/12/21 19:51:49;;;;;;;18.75;7.60;;;7.80;99.90;;;;;;6287740;22;20504;-92
2022/12/21 19:54:32;;;;;;;18.75;7.50;;;7.80;99.90;;;;;;6287368;22;20011;-91
2022/12/21 19:59:46;;;;;;;16.25;7.97;;;7.70;99.90;;;;;;6313305;22;20474;-90
2022/12/21 20:02:23;;;;;;;16.30;7.30;;;7.80;99.90;;;;;;6313007;22;20018;-91
2022/12/21 20:05:20;;;;;;;16.58;7.43;;;7.80;99.90;;;;;;6287422;22;20015;-92
2022/12/21 20:07:46;;;;;;;15.25;6.85;;;7.70;99.90;;;;;;6312681;22;20015;-89
2022/12/21 20:10:32;;;;;;;16.83;7.45;;;7.70;99.90;;;;;;6287198;22;20011;-92
2022/12/21 20:12:58;;;;;;;14.68;6.93;;;7.80;99.90;;;;;;6287625;22;20015;-90
2022/12/21 20:15:31;;;;;;;17.60;7.20;;;7.80;99.90;;;;;;6312514;22;20512;-89
2022/12/21 20:18:06;;;;;;;13.98;6.65;;;7.80;99.90;;;;;;6286310;22;20025;-91
2022/12/21 20:20:31;;;;;;;14.52;6.63;;;7.80;99.90;;;;;;6312383;22;20093;-91
2022/12/21 20:23:26;;;;;;;15.17;6.97;;;7.80;99.90;;;;;;6286875;22;20050;-91
2022/12/21 20:26:25;;;;;;;15.95;6.63;;;7.80;99.90;;;;;;6317931;22;20375;-92
2022/12/21 20:28:54;;;;;;;14.68;6.38;;;7.80;99.90;;;;;;6286517;22;20452;-90
2022/12/21 20:31:21;;;;;;;18.42;6.38;;;7.80;99.90;;;;;;6287091;22;20011;-91
2022/12/21 20:33:48;;;;;;;18.80;6.97;;;7.80;99.90;;;;;;6287366;22;20018;-91
2022/12/21 20:46:40;;;;;;;14.52;6.88;;;7.80;99.90;;;;;;6339256;22;20440;-93
2022/12/21 20:49:09;;;;;;;16.80;7.38;;;7.80;99.90;;;;;;6312749;22;20050;-91
2022/12/21 20:51:34;;;;;;;16.98;6.88;;;7.80;99.90;;;;;;6286180;22;20019;-92
2022/12/21 20:54:03;;;;;;;15.03;6.27;;;7.80;99.90;;;;;;6286990;22;20064;-91
2022/12/21 21:01:56;;;;;;;15.10;6.75;;;7.80;99.90;;;;;;6252036;22;20030;-91
2022/12/21 21:04:42;;;;;;;15.02;6.93;;;7.90;99.90;;;;;;6202619;22;20075;-90
2022/12/21 21:07:33;;;;;;;15.00;6.07;;;7.90;99.90;;;;;;6224869;22;20055;-91
2022/12/21 21:10:02;;;;;;;15.43;6.38;;;7.90;99.90;;;;;;6225529;22;20051;-91
2022/12/21 21:12:30;;;;;;;11.77;5.15;;;7.90;99.90;;;;;;6225240;22;20012;-90
2022/12/21 21:14:55;;;;;;;15.23;6.45;;;7.90;99.90;;;;;;6225250;22;20103;-90
2022/12/21 21:18:11;;;;;;;11.70;5.50;;;7.90;99.90;;;;;;6225137;22;20055;-91
